Irvington, NY

4:20 AM EDT on August 04, 2015 (GMT -0400)
Tarryhill | | Change Station
CLOSE
Current Station
Personal Weather Station
Location: Tarrytown, NY
Elevation: 323 ft
Nearby Weather Stations

Elev 323 ft 41.05 °N, 73.85 °W | Updated 32 seconds ago

Rain
Rain
71.8 °F
Feels Like 71.8 °F
N
18.0
Wind Variable Wind from SW
Gusts 18.0 mph

Today
High -- | Low -- °F
--% Chance of Precip.
Yesterday
High -- | Low -- °F
Precip. -- in
5:53 AM 8:08 PM
Waning Gibbous, 80% visible
Pressure 29.86 in
Visibility 8.0 miles
Clouds Few 4400 ft
Mostly Cloudy 10000 ft
Dew Point 68 °F
Humidity 88%
Rainfall 0.09 in
Snow Depth Not available.
UV 0 out of 12
Pollen 7.80 out of 12
Air Quality Not available.
Flu Activity Not available.
SPECI KHPN 040816Z 20006KT 8SM -TSRA FEW044 BKN100 23/20 A2986 RMK AO2 TSB15 FRQ LTGICCG TS SW MOV NE P0002

More Conditions Fewer Conditions

Pressure 29.86 in
Visibility 8.0 miles
Clouds Few 4400 ft
Mostly Cloudy 10000 ft
Dew Point 68 °F
Humidity 88%
Rainfall 0.09 in
Snow Depth Not available.
UV 0 out of 12
Pollen 7.80 out of 12
Air Quality Not available.
Flu Activity Not available.
SPECI KHPN 040816Z 20006KT 8SM -TSRA FEW044 BKN100 23/20 A2986 RMK AO2 TSB15 FRQ LTGICCG TS SW MOV NE P0002

More Conditions Fewer Conditions

10-Day Weather Forecast

×

Almanac

Astronomy

Aug. 04, 2015 Rise Set
Actual Time
Civil Twilight
Nautical Twilight
Astronomical Twilight
Moon
Length of Visible Light
Length of Day
Tomorrow will be .
, % of the Moon is Illuminated

Today's Extremes

State Highs State Lows

Community

WunderPhotos

Upload Photos

1,843,877 photos uploaded!

WunderBlogs® & News

Nearby

Air Quality

  Air Quality AQ Index Pollutant
Not available.

Snow Depth

Station Depth Elevation

Earthquake Activity

City Distance Mag. Time & Date
Minimum magnitude displayed is 2.5.

Coastal Water Temperatures

Place Temperature

Stations

Nearby Weather Stations

Station Location Temp. Windchill Dew Point Humidity Wind Precip. Elev Updated Type